createdAt,value
2019-04-14T00:02:40.463Z,100.00
2019-04-14T00:05:10.586Z,100.00
2019-04-14T00:07:38.862Z,100.00
2019-04-14T00:10:09.380Z,100.00
2019-04-14T00:12:38.411Z,100.00
2019-04-14T00:15:21.130Z,100.00
2019-04-14T00:17:39.182Z,100.00
2019-04-14T00:20:07.547Z,100.00
2019-04-14T00:22:35.999Z,100.00
2019-04-14T00:25:06.538Z,100.00
2019-04-14T00:27:34.825Z,100.00
2019-04-14T00:30:05.476Z,100.00
2019-04-14T00:32:35.569Z,100.00
2019-04-14T00:35:06.093Z,100.00
2019-04-14T00:37:36.035Z,100.00
2019-04-14T00:40:08.321Z,100.00
2019-04-14T00:42:41.124Z,100.00
2019-04-14T00:45:11.239Z,100.00
2019-04-14T00:47:51.929Z,100.00
2019-04-14T00:50:12.448Z,100.00
2019-04-14T00:52:41.527Z,100.00
2019-04-14T00:55:09.970Z,100.00
2019-04-14T00:57:38.245Z,100.00
2019-04-14T01:00:08.103Z,100.00
2019-04-14T01:02:36.606Z,100.00
2019-04-14T01:05:06.671Z,100.00
2019-04-14T01:07:34.963Z,100.00
2019-04-14T01:10:04.035Z,100.00
2019-04-14T01:12:32.364Z,100.00
2019-04-14T01:15:00.847Z,100.00
2019-04-14T01:17:29.273Z,100.00
2019-04-14T01:19:57.773Z,100.00
2019-04-14T01:22:27.072Z,100.00
2019-04-14T01:24:55.627Z,100.00
2019-04-14T01:27:23.909Z,100.00
2019-04-14T01:29:53.802Z,100.00
2019-04-14T01:32:22.169Z,100.00
2019-04-14T01:34:52.048Z,100.00
2019-04-14T01:37:20.542Z,100.00
2019-04-14T01:39:48.823Z,100.00
2019-04-14T01:42:18.067Z,100.00
2019-04-14T01:44:46.427Z,100.00
2019-04-14T01:47:15.830Z,100.00
2019-04-14T01:49:44.427Z,100.00
2019-04-14T01:52:21.002Z,100.00
2019-04-14T01:55:07.564Z,100.00
2019-04-14T01:57:52.577Z,100.00
2019-04-14T02:00:29.200Z,100.00
2019-04-14T02:02:59.505Z,100.00
2019-04-14T02:05:27.928Z,100.00
2019-04-14T02:07:56.382Z,100.00
2019-04-14T02:10:25.912Z,100.00
2019-04-14T02:12:54.503Z,100.00
2019-04-14T02:15:22.905Z,100.00
2019-04-14T02:17:52.333Z,100.00
2019-04-14T02:20:20.781Z,100.00
2019-04-14T02:22:50.618Z,100.00
2019-04-14T02:25:19.018Z,100.00
2019-04-14T02:27:49.368Z,100.00
2019-04-14T02:30:23.019Z,100.00
2019-04-14T02:33:15.365Z,100.00
2019-04-14T02:35:50.283Z,100.00
2019-04-14T02:38:23.366Z,100.00
2019-04-14T02:41:13.389Z,100.00
2019-04-14T02:45:57.480Z,100.00
2019-04-14T02:48:29.206Z,100.00
2019-04-14T02:50:47.746Z,100.00
2019-04-14T02:53:15.760Z,100.00
2019-04-14T02:55:49.116Z,100.00
2019-04-14T02:58:18.507Z,100.00
2019-04-14T03:00:55.601Z,100.00
2019-04-14T03:03:23.438Z,100.00
2019-04-14T03:08:17.058Z,100.00
2019-04-14T03:10:48.162Z,100.00
2019-04-14T03:15:48.233Z,100.00
2019-04-14T03:18:33.886Z,100.00
2019-04-14T03:20:59.132Z,100.00
2019-04-14T03:23:48.564Z,100.00
2019-04-14T03:26:23.025Z,100.00
2019-04-14T03:28:52.611Z,100.00
2019-04-14T03:34:30.202Z,100.00
2019-04-14T03:36:59.752Z,100.00
2019-04-14T03:39:02.513Z,100.00
2019-04-14T03:41:42.861Z,100.00
2019-04-14T03:43:50.043Z,100.00
2019-04-14T03:46:43.356Z,100.00
2019-04-14T03:48:58.530Z,100.00
2019-04-14T03:51:34.353Z,100.00
2019-04-14T03:53:53.425Z,100.00
2019-04-14T03:56:07.365Z,100.00
2019-04-14T03:58:33.593Z,100.00
2019-04-14T04:01:02.042Z,100.00
2019-04-14T04:03:30.417Z,100.00
2019-04-14T04:06:00.689Z,100.00
2019-04-14T04:08:29.177Z,100.00
2019-04-14T04:10:59.769Z,100.00
2019-04-14T04:13:28.142Z,100.00
2019-04-14T04:15:58.420Z,100.00
2019-04-14T04:18:28.754Z,100.00
2019-04-14T04:21:02.935Z,100.00
2019-04-14T04:23:45.066Z,100.00
2019-04-14T04:26:15.409Z,100.00
2019-04-14T04:28:45.337Z,100.00
2019-04-14T04:31:15.627Z,100.00
2019-04-14T04:33:45.808Z,100.00
2019-04-14T04:36:24.863Z,100.00
2019-04-14T04:38:55.342Z,100.00
2019-04-14T04:41:23.699Z,100.00
2019-04-14T04:43:52.093Z,100.00
2019-04-14T04:46:20.395Z,100.00
2019-04-14T04:49:00.916Z,100.00
2019-04-14T04:51:18.780Z,100.00
2019-04-14T04:53:48.312Z,100.00
2019-04-14T04:56:16.838Z,100.00
2019-04-14T04:58:45.678Z,100.00
2019-04-14T05:01:14.490Z,100.00
2019-04-14T05:03:43.521Z,100.00
2019-04-14T05:06:38.005Z,100.00
2019-04-14T05:09:21.003Z,100.00
2019-04-14T05:12:07.072Z,100.00
2019-04-14T05:14:54.189Z,100.00
2019-04-14T05:17:27.736Z,100.00
2019-04-14T05:19:56.312Z,100.00
2019-04-14T05:22:24.787Z,100.00
2019-04-14T05:24:53.071Z,100.00
2019-04-14T05:27:21.422Z,100.00
2019-04-14T05:29:51.485Z,100.00
2019-04-14T05:32:19.845Z,100.00
2019-04-14T05:34:50.131Z,100.00
2019-04-14T05:37:18.520Z,100.00
2019-04-14T05:39:46.826Z,100.00
2019-04-14T05:42:21.880Z,100.00
2019-04-14T05:44:45.243Z,100.00
2019-04-14T05:47:13.586Z,100.00
2019-04-14T05:49:46.833Z,100.00
2019-04-14T05:52:12.073Z,100.00
2019-04-14T05:54:42.454Z,100.00
2019-04-14T05:57:11.223Z,100.00
2019-04-14T05:59:39.679Z,100.00
2019-04-14T06:02:09.327Z,100.00
2019-04-14T06:04:37.713Z,100.00
2019-04-14T06:07:06.839Z,100.00
2019-04-14T06:09:35.216Z,100.00
2019-04-14T06:12:03.503Z,100.00
2019-04-14T06:14:31.808Z,100.00
2019-04-14T06:17:00.130Z,100.00
2019-04-14T06:19:37.048Z,100.00
2019-04-14T06:21:58.505Z,100.00
2019-04-14T06:24:26.780Z,100.00
2019-04-14T06:26:55.106Z,100.00
2019-04-14T06:29:23.416Z,100.00
2019-04-14T06:32:09.596Z,100.00
2019-04-14T06:34:39.533Z,100.00
2019-04-14T06:37:24.654Z,100.00
2019-04-14T06:39:57.138Z,100.00
2019-04-14T06:42:27.758Z,100.00
2019-04-14T06:48:03.667Z,100.00
2019-04-14T07:02:48.066Z,100.00
2019-04-14T07:05:16.504Z,100.00
2019-04-14T07:07:56.171Z,100.00
2019-04-14T07:10:14.836Z,100.00
2019-04-14T07:12:43.585Z,100.00
2019-04-14T07:15:12.084Z,100.00
2019-04-14T07:17:40.617Z,100.00
2019-04-14T07:20:08.904Z,100.00
2019-04-14T07:22:37.205Z,100.00
2019-04-14T07:25:05.951Z,100.00
2019-04-14T07:27:34.313Z,100.00
2019-04-14T07:30:16.246Z,100.00
2019-04-14T07:32:49.802Z,100.00
2019-04-14T07:35:35.979Z,100.00
2019-04-14T07:38:06.776Z,100.00
2019-04-14T07:40:39.434Z,100.00
2019-04-14T07:43:14.850Z,100.00
2019-04-14T07:45:44.811Z,100.00
2019-04-14T07:48:23.718Z,100.00
2019-04-14T07:51:02.478Z,100.00
2019-04-14T07:53:32.419Z,100.00
2019-04-14T07:56:08.372Z,100.00
2019-04-14T07:58:56.706Z,100.00
2019-04-14T08:01:29.648Z,100.00
2019-04-14T08:04:08.067Z,100.00
2019-04-14T08:06:38.347Z,100.00
2019-04-14T08:09:07.458Z,100.00
2019-04-14T08:11:35.763Z,100.00
2019-04-14T08:14:04.162Z,100.00
2019-04-14T08:16:32.487Z,98.17
2019-04-14T08:19:00.797Z,98.17
2019-04-14T08:21:29.077Z,97.59
2019-04-14T08:23:57.385Z,97.59
2019-04-14T08:26:25.708Z,98.53
2019-04-14T08:28:54.022Z,98.42
2019-04-14T08:31:23.189Z,98.75
2019-04-14T08:33:51.503Z,97.17
2019-04-14T08:36:19.899Z,94.90
2019-04-14T08:38:48.174Z,95.25
2019-04-14T08:41:16.509Z,96.40
2019-04-14T08:43:48.928Z,96.78
2019-04-14T08:46:18.883Z,96.26
2019-04-14T08:48:49.876Z,95.82
2019-04-14T08:51:19.840Z,95.82
2019-04-14T08:54:01.602Z,94.54
2019-04-14T08:56:31.527Z,92.98
2019-04-14T08:59:04.378Z,94.08
2019-04-14T09:01:50.710Z,89.55
2019-04-14T09:04:38.629Z,91.88
2019-04-14T09:07:11.598Z,90.86
2019-04-14T09:09:41.521Z,91.18
2019-04-14T09:12:15.915Z,87.77
2019-04-14T09:14:41.615Z,85.92
2019-04-14T09:17:09.905Z,85.19
2019-04-14T09:19:38.344Z,83.52
2019-04-14T09:22:06.621Z,83.32
2019-04-14T09:24:34.901Z,84.73
2019-04-14T09:27:03.333Z,83.11
2019-04-14T09:29:31.708Z,79.48
2019-04-14T09:32:00.396Z,79.03
2019-04-14T09:34:29.064Z,79.65
2019-04-14T09:36:57.573Z,79.86
2019-04-14T09:39:25.874Z,79.06
2019-04-14T09:41:54.199Z,80.84
2019-04-14T09:44:22.498Z,80.52
2019-04-14T09:46:50.785Z,79.67
2019-04-14T09:49:19.205Z,78.01
2019-04-14T09:51:47.511Z,72.46
2019-04-14T09:54:15.823Z,74.31
2019-04-14T09:56:44.719Z,72.87
2019-04-14T09:59:13.059Z,73.35
2019-04-14T10:01:41.394Z,70.57
2019-04-14T10:04:10.125Z,72.11
2019-04-14T10:06:40.780Z,68.05
2019-04-14T10:09:08.829Z,69.62
2019-04-14T10:11:47.872Z,69.90
2019-04-14T10:14:07.462Z,70.00
2019-04-14T10:16:35.785Z,68.30
2019-04-14T10:19:04.213Z,72.32
2019-04-14T10:21:32.605Z,71.63
2019-04-14T10:24:00.893Z,69.27
2019-04-14T10:26:29.265Z,69.75
2019-04-14T10:28:57.756Z,68.16
2019-04-14T10:31:26.031Z,70.00
2019-04-14T10:33:54.579Z,66.79
2019-04-14T10:36:22.933Z,65.39
2019-04-14T10:38:51.223Z,63.91
2019-04-14T10:41:19.705Z,64.37
2019-04-14T10:43:48.221Z,64.85
2019-04-14T10:46:16.505Z,63.81
2019-04-14T10:48:44.838Z,62.49
2019-04-14T10:51:13.148Z,61.57
2019-04-14T10:53:41.703Z,60.61
2019-04-14T10:56:10.055Z,62.06
2019-04-14T10:58:38.667Z,59.96
2019-04-14T11:01:07.049Z,61.17
2019-04-14T11:03:36.185Z,61.50
2019-04-14T11:06:08.573Z,59.16
2019-04-14T11:08:37.490Z,58.67
2019-04-14T11:11:05.888Z,60.73
2019-04-14T11:13:34.198Z,58.81
2019-04-14T11:16:02.507Z,56.40
2019-04-14T11:18:31.072Z,54.88
2019-04-14T11:20:59.511Z,55.64
2019-04-14T11:23:27.786Z,53.15
2019-04-14T11:25:56.404Z,55.79
2019-04-14T11:28:24.753Z,57.26
2019-04-14T11:30:53.638Z,53.91
2019-04-14T11:33:32.770Z,53.11
2019-04-14T11:36:02.699Z,52.97
2019-04-14T11:38:32.709Z,55.96
2019-04-14T11:41:08.320Z,55.82
2019-04-14T11:43:36.645Z,53.37
2019-04-14T11:46:05.012Z,51.57
2019-04-14T11:48:35.826Z,52.51
2019-04-14T11:51:04.138Z,52.97
2019-04-14T11:53:32.482Z,53.07
2019-04-14T11:56:01.674Z,53.00
2019-04-14T11:58:29.982Z,54.46
2019-04-14T12:01:16.815Z,51.83
2019-04-14T12:03:49.199Z,50.42
2019-04-14T12:06:22.241Z,48.83
2019-04-14T12:09:08.654Z,47.55
2019-04-14T12:11:37.073Z,49.60
2019-04-14T12:14:05.416Z,48.37
2019-04-14T12:16:33.997Z,47.85
2019-04-14T12:19:02.310Z,49.17
2019-04-14T12:21:30.614Z,50.72
2019-04-14T12:23:58.906Z,50.38
2019-04-14T12:26:27.249Z,49.87
2019-04-14T12:28:55.849Z,51.00
2019-04-14T12:31:24.256Z,49.11
2019-04-14T12:33:53.476Z,44.55
2019-04-14T12:36:21.825Z,46.48
2019-04-14T12:38:50.170Z,45.64
2019-04-14T12:41:20.126Z,45.38
2019-04-14T12:43:53.549Z,42.43
2019-04-14T12:46:29.326Z,46.44
2019-04-14T12:48:59.246Z,47.91
2019-04-14T12:51:31.889Z,44.69
2019-04-14T12:54:00.162Z,45.07
2019-04-14T12:56:30.049Z,44.83
2019-04-14T12:59:00.725Z,45.97
2019-04-14T13:01:30.648Z,44.82
2019-04-14T13:03:59.025Z,46.77
2019-04-14T13:06:27.315Z,47.03
2019-04-14T13:08:55.652Z,47.73
2019-04-14T13:11:23.925Z,47.86
2019-04-14T13:13:52.341Z,49.57
2019-04-14T13:16:20.739Z,49.17
2019-04-14T13:18:49.122Z,49.24
2019-04-14T13:21:17.391Z,50.49
2019-04-14T13:23:45.728Z,49.04
2019-04-14T13:26:14.034Z,49.47
2019-04-14T13:28:42.320Z,49.93
2019-04-14T13:31:10.648Z,50.97
2019-04-14T13:33:38.998Z,51.33
2019-04-14T13:36:07.432Z,51.56
2019-04-14T13:38:35.720Z,51.97
2019-04-14T13:41:04.626Z,50.83
2019-04-14T13:43:32.979Z,50.59
2019-04-14T13:46:01.351Z,51.64
2019-04-14T13:48:29.690Z,52.96
2019-04-14T13:50:58.011Z,52.26
2019-04-14T13:53:26.295Z,52.10
2019-04-14T13:55:54.667Z,51.85
2019-04-14T13:58:22.971Z,51.21
2019-04-14T14:00:51.411Z,52.42
2019-04-14T14:03:19.747Z,52.50
2019-04-14T14:05:48.061Z,51.91
2019-04-14T14:08:16.334Z,52.32
2019-04-14T14:10:44.644Z,51.93
2019-04-14T14:13:31.001Z,49.36
2019-04-14T14:16:16.967Z,50.96
2019-04-14T14:18:52.602Z,50.15
2019-04-14T14:21:22.547Z,50.24
2019-04-14T14:23:55.176Z,50.77
2019-04-14T14:26:31.270Z,49.53
2019-04-14T14:28:59.581Z,48.79
2019-04-14T14:31:27.932Z,49.92
2019-04-14T14:33:56.270Z,49.34
2019-04-14T14:36:24.742Z,50.54
2019-04-14T14:38:53.054Z,49.77
2019-04-14T14:41:22.222Z,51.55
2019-04-14T14:43:50.543Z,51.11
2019-04-14T14:46:29.645Z,51.34
2019-04-14T14:48:59.562Z,52.62
2019-04-14T14:51:47.854Z,53.05
2019-04-14T14:54:16.179Z,53.90
2019-04-14T14:56:44.461Z,54.19
2019-04-14T14:59:12.943Z,55.29
2019-04-14T15:01:44.266Z,54.51
2019-04-14T15:04:12.563Z,55.64
2019-04-14T15:06:40.855Z,56.68
2019-04-14T15:09:11.823Z,57.84
2019-04-14T15:11:40.111Z,57.52
2019-04-14T15:14:08.463Z,58.10
2019-04-14T15:16:36.808Z,58.80
2019-04-14T15:19:05.157Z,57.94
2019-04-14T15:21:33.469Z,58.35
2019-04-14T15:24:01.847Z,59.69
2019-04-14T15:26:30.231Z,61.83
2019-04-14T15:28:58.515Z,60.55
2019-04-14T15:31:26.869Z,62.30
2019-04-14T15:33:55.262Z,61.89
2019-04-14T15:36:23.638Z,62.07
2019-04-14T15:38:52.164Z,62.94
2019-04-14T15:41:20.493Z,62.59
2019-04-14T15:43:48.777Z,64.01
2019-04-14T15:46:17.210Z,64.04
2019-04-14T15:48:45.512Z,63.70
2019-04-14T15:51:13.862Z,62.14
2019-04-14T15:53:42.187Z,60.59
2019-04-14T15:56:12.112Z,61.84
2019-04-14T15:58:42.168Z,61.33
2019-04-14T16:01:28.750Z,61.53
2019-04-14T16:04:02.069Z,62.22
2019-04-14T16:06:37.732Z,63.89
2019-04-14T16:09:11.331Z,63.50
2019-04-14T16:11:46.982Z,65.05
2019-04-14T16:14:26.011Z,64.53
2019-04-14T16:17:12.315Z,64.90
2019-04-14T16:19:48.100Z,63.93
2019-04-14T16:22:16.438Z,62.93
2019-04-14T16:24:46.400Z,63.67
2019-04-14T16:27:34.273Z,63.36
2019-04-14T16:30:20.234Z,63.18
2019-04-14T16:33:05.229Z,64.08
2019-04-14T16:35:34.630Z,63.33
2019-04-14T16:38:02.948Z,64.33
2019-04-14T16:40:31.233Z,64.22
2019-04-14T16:42:59.592Z,64.01
2019-04-14T16:45:28.022Z,64.44
2019-04-14T16:47:56.356Z,65.01
2019-04-14T16:50:24.632Z,65.72
2019-04-14T16:52:54.582Z,66.14
2019-04-14T16:55:29.580Z,66.79
2019-04-14T16:58:01.712Z,66.88
2019-04-14T17:00:31.636Z,66.57
2019-04-14T17:03:00.242Z,65.79
2019-04-14T17:05:28.574Z,66.30
2019-04-14T17:07:56.851Z,66.73
2019-04-14T17:10:25.534Z,67.33
2019-04-14T17:12:54.020Z,67.69
2019-04-14T17:15:27.132Z,68.07
2019-04-14T17:18:11.933Z,67.99
2019-04-14T17:20:58.425Z,68.04
2019-04-14T17:23:31.606Z,68.48
2019-04-14T17:26:07.498Z,68.53
2019-04-14T17:28:37.415Z,68.70
2019-04-14T17:31:19.330Z,69.37
2019-04-14T17:34:01.578Z,69.14
2019-04-14T17:36:46.598Z,69.84
2019-04-14T17:39:28.424Z,70.10
2019-04-14T17:42:13.445Z,71.20
2019-04-14T17:44:44.056Z,71.99
2019-04-14T17:47:32.432Z,72.32
2019-04-14T17:50:02.369Z,72.16
2019-04-14T17:52:35.007Z,72.04
2019-04-14T17:55:15.030Z,72.24
2019-04-14T17:57:53.944Z,72.42
2019-04-14T18:00:35.591Z,72.73
2019-04-14T18:03:25.057Z,73.12
2019-04-14T18:05:57.715Z,74.49
2019-04-14T18:08:43.523Z,74.96
2019-04-14T18:11:19.469Z,74.79
2019-04-14T18:14:01.261Z,75.11
2019-04-14T18:16:49.309Z,75.79
2019-04-14T18:19:27.422Z,75.78
2019-04-14T18:22:04.508Z,75.88
2019-04-14T18:24:42.418Z,76.13
2019-04-14T18:27:04.474Z,75.88
2019-04-14T18:29:37.123Z,76.28
2019-04-14T18:32:09.974Z,76.48
2019-04-14T18:34:51.891Z,77.07
2019-04-14T18:37:21.879Z,77.03
2019-04-14T18:39:57.398Z,77.57
2019-04-14T18:42:27.343Z,77.82
2019-04-14T18:45:00.185Z,78.10
2019-04-14T18:47:35.847Z,78.77
2019-04-14T18:50:09.958Z,79.00
2019-04-14T18:52:48.802Z,79.38
2019-04-14T18:55:21.564Z,80.16
2019-04-14T18:57:51.486Z,80.83
2019-04-14T19:00:22.253Z,81.55
2019-04-14T19:02:50.536Z,82.05
2019-04-14T19:05:18.810Z,82.69
2019-04-14T19:07:47.623Z,84.02
2019-04-14T19:10:16.348Z,84.22
2019-04-14T19:12:46.272Z,84.56
2019-04-14T19:15:16.818Z,85.08
2019-04-14T19:17:59.116Z,85.94
2019-04-14T19:20:27.517Z,86.54
2019-04-14T19:22:55.834Z,86.58
2019-04-14T19:25:24.122Z,86.75
2019-04-14T19:27:52.552Z,86.53
2019-04-14T19:30:20.885Z,86.79
2019-04-14T19:32:49.192Z,87.69
2019-04-14T19:35:18.056Z,87.23
2019-04-14T19:37:46.360Z,87.75
2019-04-14T19:40:14.718Z,89.06
2019-04-14T19:42:43.058Z,88.90
2019-04-14T19:45:11.482Z,89.83
2019-04-14T19:47:39.962Z,89.54
2019-04-14T19:50:08.342Z,90.50
2019-04-14T19:52:36.613Z,89.84
2019-04-14T19:55:05.699Z,90.77
2019-04-14T19:57:33.986Z,90.85
2019-04-14T20:00:02.454Z,92.03
2019-04-14T20:02:30.899Z,92.18
2019-04-14T20:04:59.331Z,93.31
2019-04-14T20:07:27.733Z,93.21
2019-04-14T20:09:56.293Z,93.64
2019-04-14T20:12:25.890Z,93.34
2019-04-14T20:14:54.587Z,93.07
2019-04-14T20:17:24.509Z,93.29
2019-04-14T20:19:56.886Z,93.50
2019-04-14T20:22:35.897Z,93.52
2019-04-14T20:25:33.261Z,93.17
2019-04-14T20:27:54.417Z,93.20
2019-04-14T20:30:24.429Z,94.32
2019-04-14T20:32:52.839Z,94.56
2019-04-14T20:35:21.160Z,94.68
2019-04-14T20:37:49.459Z,94.87
2019-04-14T20:40:17.855Z,94.44
2019-04-14T20:42:46.139Z,94.47
2019-04-14T20:45:14.550Z,94.48
2019-04-14T20:47:42.993Z,93.97
2019-04-14T20:50:11.284Z,94.14
2019-04-14T20:52:39.584Z,94.07
2019-04-14T20:55:08.183Z,94.37
2019-04-14T20:57:36.536Z,94.10
2019-04-14T21:00:06.002Z,94.61
2019-04-14T21:02:35.944Z,94.60
2019-04-14T21:05:07.398Z,95.12
2019-04-14T21:07:40.361Z,95.30
2019-04-14T21:10:12.965Z,95.79
2019-04-14T21:12:45.584Z,96.12
2019-04-14T21:15:21.636Z,96.13
2019-04-14T21:18:06.552Z,95.87
2019-04-14T21:20:39.449Z,95.68
2019-04-14T21:23:27.149Z,95.71
2019-04-14T21:26:01.222Z,95.93
2019-04-14T21:28:31.345Z,95.81
2019-04-14T21:31:01.267Z,96.03
2019-04-14T21:33:47.210Z,96.40
2019-04-14T21:36:18.207Z,96.19
2019-04-14T21:38:54.368Z,96.24
2019-04-14T21:41:25.088Z,96.32
2019-04-14T21:43:53.517Z,96.70
2019-04-14T21:46:21.796Z,97.06
2019-04-14T21:48:50.135Z,97.80
2019-04-14T21:51:18.452Z,97.57
2019-04-14T21:53:47.807Z,97.44
2019-04-14T21:56:16.108Z,97.63
2019-04-14T21:58:51.919Z,98.22
2019-04-14T22:01:41.002Z,98.36
2019-04-14T22:04:26.974Z,99.21
2019-04-14T22:07:09.209Z,99.53
2019-04-14T22:09:39.136Z,100.00
2019-04-14T22:12:07.792Z,100.00
2019-04-14T22:14:36.196Z,100.00
2019-04-14T22:17:05.326Z,100.00
2019-04-14T22:19:33.603Z,100.00
2019-04-14T22:22:01.985Z,100.00
2019-04-14T22:24:30.302Z,100.00
2019-04-14T22:26:58.583Z,100.00
2019-04-14T22:29:27.254Z,100.00
2019-04-14T22:31:55.544Z,100.00
2019-04-14T22:34:23.906Z,100.00
2019-04-14T22:36:52.419Z,100.00
2019-04-14T22:39:20.786Z,100.00
2019-04-14T22:41:49.184Z,100.00
2019-04-14T22:44:17.973Z,100.00
2019-04-14T22:46:46.273Z,100.00
2019-04-14T22:49:14.934Z,100.00
2019-04-14T22:51:43.516Z,100.00
2019-04-14T22:54:12.573Z,100.00
2019-04-14T22:56:40.925Z,100.00
2019-04-14T22:59:09.368Z,100.00
2019-04-14T23:01:39.292Z,100.00
2019-04-14T23:04:25.399Z,100.00
2019-04-14T23:06:55.333Z,100.00
2019-04-14T23:09:25.390Z,100.00
2019-04-14T23:11:58.210Z,100.00
2019-04-14T23:14:28.223Z,100.00
2019-04-14T23:17:01.054Z,100.00
2019-04-14T23:19:36.505Z,100.00
2019-04-14T23:22:09.483Z,100.00
2019-04-14T23:24:39.425Z,100.00
2019-04-14T23:27:07.719Z,100.00
2019-04-14T23:29:36.154Z,100.00
2019-04-14T23:32:06.391Z,100.00
2019-04-14T23:34:34.806Z,100.00
2019-04-14T23:37:03.223Z,100.00
2019-04-14T23:39:31.565Z,100.00
2019-04-14T23:41:59.944Z,100.00
2019-04-14T23:44:28.361Z,100.00
2019-04-14T23:46:56.699Z,100.00
2019-04-14T23:49:25.768Z,100.00
2019-04-14T23:51:54.112Z,100.00
2019-04-14T23:54:22.398Z,100.00
2019-04-14T23:56:50.693Z,100.00
2019-04-14T23:59:19.151Z,100.00
